Historyczne dane pomiarowe

Dodano dane terminowe – wersja testowa.

Dane z okresu 1951-2019

Wersja bazy: 1.34 [2019-03-16, lista zmian], aktualizacja planowana na 2019-04-15

Dane meteo z obszaru Polski uzyskane na podstawie danych udostępnionych przez Instytut Meteorologii i Gospodarki Wodnej – Państwowy Instytut Badawczy.

 

Wybierz Datę:    

       

TemperaturaWilgotnośćWiatrCiśnienieOpadyŚniegCzas trwania zjawisk
 Stacja t tx tn tng RH VA  wxwx mslp ppp RRR   cm mm wxwxwxwxwxwxwx
1987-08-14 14.3 20.6 7.6 5.3 87.0- 5.3 1.0---- 3.0------------
1987-08-13 12.3 16.1 7.6 5.8 96.0- 6.3 2.0---- 0.0------------
1987-08-12 13.4 17.0 9.6 7.8 80.3- 5.0 2.0---- 0.3------------
1987-08-11 13.5 17.5 9.1 8.8 88.3- 5.0 3.0---- 2.2------------
1987-08-10 14.6 18.6 13.6 11.3 92.5- 7.0 2.0---- 5.5------------
1987-08-09 15.9 21.1 10.1 6.8 81.3- 4.3 1.0---- 2.0------------
1987-08-08 14.3 21.0 6.2 4.3 75.0- 3.7 1.0---- 0.0------------
1987-08-07 13.0 17.0 8.1 8.3 79.3- 3.7 2.0---- 0.0------------
1987-08-06 12.8 17.3 9.1 6.3 86.5- 5.3 3.0---- 1.0------------
1987-08-05 12.6 16.5 7.2 4.8 78.5- 3.7 3.0---- 0.0------------
1987-08-04 13.0 17.8 9.6 7.8 92.0- 4.3 2.0---- 1.8------------
1987-08-03 13.0 17.0 8.1 7.3 83.3- 3.0 1.0---- 5.6------------
1987-08-02 14.2 17.7 10.6 9.8 80.5- 5.3 2.0---- 0.4------------
1987-08-01 15.0 19.8 11.6 9.8 88.3- 7.0 2.0---- 4.2------------
1987-07-31 15.4 21.0 12.1 9.8 95.5- 7.0 2.0---- 15.8------------
1987-07-30 17.2 22.5 11.6 9.8 76.3- 4.7 1.0---- 1.2------------
1987-07-29 14.9 19.5 10.1 7.8 82.0- 5.3 2.0---- 0.0------------
1987-07-28 14.7 19.6 11.1 9.8 83.8- 6.0 3.0---- 1.2------------
1987-07-27 12.0 15.1 7.2 5.3 80.5- 6.0 4.0---- 3.5------------
1987-07-26 14.4 17.8 11.1 7.8 85.8- 6.0 1.0---- 0.0------------
1987-07-25 17.2 22.1 13.6 10.8 88.0- 5.3 1.0---- 0.0------------
1987-07-24 20.4 26.0 12.1 12.3 83.3- 4.0 1.0---- 0.0------------
1987-07-23 21.4 27.5 13.6 13.8 87.3- 4.3 1.0---- 4.8------------
1987-07-22 20.0 24.5 13.6 11.8 89.0- 6.3 1.0---- 0.0------------
1987-07-21 18.1 24.3 10.6 8.8 81.3- 4.0 1.0---- 0.0------------
1987-07-20 17.7 21.7 14.6 14.8 92.8- 6.3 2.0---- 0.1------------
1987-07-19 19.6 23.5 14.6 9.8 81.3- 3.7 3.0---- 18.5------------
1987-07-18 20.6 24.5 16.0 12.3 83.5- 3.7 2.0---- 0.0------------
1987-07-17 18.5 23.8 12.1 8.3 80.3- 5.0 3.0---- 0.0------------
1987-07-16 17.7 24.0 7.6 4.8 74.8- 3.7 1.0---- 0.0------------
1987-07-15 16.0 22.6 6.2 3.8 72.8- 2.3 0.0---- 0.0------------
1987-07-14 14.6 19.4 9.6 6.8 81.8- 4.3 3.0---- 0.0------------
1987-07-13 15.4 19.6 11.6 8.8 89.3- 3.7 2.0---- 0.5------------
1987-07-12 16.7 19.0 13.6 13.8 99.8- 8.0 2.0---- 10.0------------
1987-07-11 13.3 18.1 8.6 7.3 87.0- 6.0 2.0---- 14.0------------
1987-07-10 14.1 18.1 9.6 6.8 76.5- 5.0 4.0---- 0.5------------
1987-07-09 17.9 25.6 14.6 13.8 90.0- 8.0 2.0---- 0.7------------
1987-07-08 22.4 29.0 15.0 10.8 69.5- 4.0 2.0---- 1.8------------
1987-07-07 20.0 26.5 10.6 6.8 67.0- 1.3 1.0---- 0.0------------
1987-07-06 17.9 24.0 7.6 4.8 69.8- 1.3 1.0---- 0.0------------
1987-07-05 18.0 23.6 10.6 6.8 72.5- 3.0 2.0---- 0.0------------
1987-07-04 17.3 22.6 10.6 6.8 78.3- 5.3 1.0---- 0.0------------
1987-07-03 18.3 23.0 10.1 6.3 78.3- 1.3 1.0---- 0.0------------
1987-07-02 19.3 23.1 16.0 14.8 76.5- 4.3 1.0---- 0.0------------
1987-07-01 24.3 31.0 19.5 16.7 81.5- 3.0 3.0---- 0.0------------
1987-06-30 23.6 28.0 18.5 16.9 81.0- 1.3 1.0---- 0.0------------
1987-06-29 16.5 22.5 7.6 5.0 82.5- 4.7 2.0---- 0.0------------
1987-06-28 15.7 19.0 12.1 10.0 93.0- 5.3 2.0---- 0.0------------
1987-06-27 17.9 20.5 16.0 13.9 87.3- 6.3 2.0---- 0.0------------
1987-06-26 15.8 20.6 9.6 7.0 78.5- 7.0 2.0---- 0.0------------
1987-06-25 12.4 16.1 11.6 10.0 94.5- 7.0 1.0---- 7.4------------
1987-06-24 15.8 21.0 11.6 10.0 81.3- 5.3 2.0---- 6.5------------
1987-06-23 15.4 21.0 10.6 10.0 90.0- 6.0 1.0---- 3.6------------
1987-06-22 19.0 25.6 10.6 8.0 70.5- 3.0 1.0---- 0.0------------
1987-06-21 17.8 24.3 9.6 6.0 71.0- 2.3 1.0---- 0.0------------
1987-06-20 16.2 21.9 8.6 6.0 80.8- 2.3 1.0---- 0.0------------
1987-06-19 11.8 15.0 6.7 5.0 80.5- 6.0 2.0---- 0.0------------
1987-06-18 10.1 17.6 4.7 1.6 92.8- 4.7 3.0---- 1.8------------
1987-06-17 12.1 14.0 10.6 9.0 87.5- 6.3 4.0---- 0.0------------
1987-06-16 14.0 23.6 10.6 11.0 94.0- 8.0 5.0---- 1.8------------
554.1 ms

 

Źródłem pochodzenia danych jest Instytut Meteorologii i Gospodarki Wodnej – Państwowy Instytut Badawczy. Dane Instytutu Meteorologii i Gospodarki Wodnej – Państwowego Instytutu Badawczego zostały przetworzone.

Dane źródłowe można odnaleźć na stronie https://dane.imgw.pl